Aeroboteco Virtual Airlines! Uma nuvem a frente.



 INFORMAÇÕES METEOROLÓGICAS
METAR FOR MGRT
ADDS - METARS form results

(1652 UTC 07 August 2022)
Data provider http://aviationweather.gov/metar/data/
 
METAR text: MGRT 071600Z 00000KT CAVOK 29/22 Q1015 A2997 SCT080 OVC200 VOL. SANTA MARIA Y SANTIAGUITO EN ACTIVIDAD
Conditions at: MGRT (RETALHULEU (MIL/, GT) observed 1600 UTC 07 August 2022
Temperature: 29.0°C (84°F)
Dewpoint: 22.0°C (72°F) [RH = 66%]
Pressure (altimeter): 29.97 inches Hg (1015.0 mb)
Winds: calm
Visibility: 6 or more miles (10+ km)
Ceiling: 20000 feet AGL
Clouds: scattered clouds at 8000 feet AGL
overcast cloud deck at 20000 feet AGL
Weather: SA SA  (sand, sand)

 MAPA DO AEROPORTO

 INFORMAÇÕES DA PISTA
Pista 04 Tamanho da pista 5065 ft Largura da pista 100 ft
Elevação da pista 0 ft Ranhura da pista 0 ft Proa da pista 50
Pista 22 Tamanho da pista 5065 ft Largura da pista 100 ft
Elevação da pista 0 ft Ranhura da pista 0 ft Proa da pista 230

 FREQUÊNCIAS DO AEROPORTO
Tipo TWR Nome TWR Frequência 118.8 MHZ

 AUXÍLIOS DE NAVEGAÇÃO PRÓXIMOS AO AEROPORTO
Tipo NDB Nome Retalhuleu Frequência 340 KHZ